createdAt,value
2022-10-28T00:01:14.773Z,12.95
2022-10-28T00:06:20.979Z,12.96
2022-10-28T00:11:26.115Z,12.98
2022-10-28T00:16:31.241Z,12.96
2022-10-28T00:21:37.719Z,12.96
2022-10-28T00:26:42.583Z,12.95
2022-10-28T00:31:46.994Z,12.95
2022-10-28T00:36:51.104Z,12.98
2022-10-28T00:41:55.857Z,13.01
2022-10-28T00:46:58.781Z,13.00
2022-10-28T00:52:07.131Z,13.01
2022-10-28T00:57:14.171Z,13.06
2022-10-28T01:02:18.323Z,13.13
2022-10-28T01:07:23.270Z,13.23
2022-10-28T01:12:36.284Z,13.31
2022-10-28T01:17:56.276Z,13.39
2022-10-28T01:23:09.159Z,13.43
2022-10-28T01:28:41.915Z,13.48
2022-10-28T01:33:53.556Z,13.50
2022-10-28T01:39:02.198Z,13.54
2022-10-28T01:44:10.683Z,13.56
2022-10-28T01:49:20.638Z,13.57
2022-10-28T01:54:28.167Z,13.59
2022-10-28T01:59:32.664Z,13.59
2022-10-28T02:04:36.721Z,13.62
2022-10-28T02:09:57.620Z,13.64
2022-10-28T02:15:20.530Z,13.67
2022-10-28T02:20:34.783Z,13.74
2022-10-28T02:25:44.134Z,13.75
2022-10-28T02:30:51.766Z,13.75
2022-10-28T02:35:59.518Z,13.75
2022-10-28T02:41:07.940Z,13.78
2022-10-28T02:46:13.486Z,13.78
2022-10-28T02:51:21.197Z,13.80
2022-10-28T02:56:24.271Z,13.80
2022-10-28T03:01:27.225Z,13.81
2022-10-28T03:06:31.691Z,13.81
2022-10-28T03:11:34.437Z,13.81
2022-10-28T03:16:37.154Z,13.82
2022-10-28T03:21:41.212Z,13.82
2022-10-28T03:26:44.065Z,13.82
2022-10-28T03:31:46.780Z,13.82
2022-10-28T03:36:50.890Z,13.84
2022-10-28T03:41:53.583Z,13.88
2022-10-28T03:46:56.291Z,13.88
2022-10-28T03:52:00.451Z,13.88
2022-10-28T03:57:03.152Z,13.88
2022-10-28T04:02:06.072Z,13.87
2022-10-28T04:07:10.427Z,13.87
2022-10-28T04:12:13.227Z,13.88
2022-10-28T04:17:16.772Z,13.84
2022-10-28T04:22:21.830Z,13.85
2022-10-28T04:27:25.475Z,13.82
2022-10-28T04:32:28.415Z,13.77
2022-10-28T04:37:32.877Z,13.72
2022-10-28T04:42:35.834Z,13.70
2022-10-28T04:47:39.445Z,13.65
2022-10-28T04:52:43.717Z,13.59
2022-10-28T04:57:53.651Z,13.52
2022-10-28T05:02:56.821Z,13.46
2022-10-28T05:08:01.831Z,13.40
2022-10-28T05:13:04.538Z,13.34
2022-10-28T05:18:07.309Z,13.23
2022-10-28T05:23:11.822Z,13.11
2022-10-28T05:28:14.645Z,12.97
2022-10-28T05:33:17.464Z,12.96
2022-10-28T05:38:21.891Z,12.94
2022-10-28T05:43:27.905Z,12.91
2022-10-28T05:48:31.913Z,12.89
2022-10-28T05:53:36.894Z,12.86
2022-10-28T05:58:39.739Z,12.80
2022-10-28T06:03:42.693Z,13.02
2022-10-28T06:08:46.777Z,12.94
2022-10-28T06:13:48.001Z,12.93
2022-10-28T06:18:51.387Z,12.94
2022-10-28T06:23:55.509Z,13.00
2022-10-28T06:28:58.256Z,13.09
2022-10-28T06:34:01.051Z,13.14
2022-10-28T06:39:06.120Z,13.17
2022-10-28T06:44:09.455Z,13.24
2022-10-28T06:49:13.794Z,13.31
2022-10-28T06:54:19.007Z,13.39
2022-10-28T06:59:21.718Z,13.49
2022-10-28T07:04:24.976Z,13.58
2022-10-28T07:09:30.008Z,13.67
2022-10-28T07:14:35.003Z,13.77
2022-10-28T07:19:40.919Z,13.90
2022-10-28T07:24:45.078Z,14.04
2022-10-28T07:29:47.840Z,14.20
2022-10-28T07:34:50.657Z,14.35
2022-10-28T07:39:54.842Z,14.45
2022-10-28T07:44:57.558Z,14.51
2022-10-28T07:50:00.493Z,14.58
2022-10-28T07:55:05.863Z,14.67
2022-10-28T08:00:09.361Z,14.76
2022-10-28T08:05:14.741Z,14.87
2022-10-28T08:15:52.881Z,15.08
2022-10-28T08:26:48.950Z,15.44
2022-10-28T08:31:51.700Z,15.58
2022-10-28T08:36:54.406Z,15.67
2022-10-28T08:42:08.780Z,15.84
2022-10-28T08:47:22.713Z,15.95
2022-10-28T08:52:31.775Z,16.28
2022-10-28T08:57:40.924Z,16.49
2022-10-28T09:02:52.456Z,16.70
2022-10-28T09:07:57.453Z,16.90
2022-10-28T09:13:09.586Z,17.14
2022-10-28T09:18:19.107Z,17.24
2022-10-28T09:23:25.094Z,17.33
2022-10-28T09:28:43.300Z,17.69
2022-10-28T09:33:59.721Z,18.12
2022-10-28T09:39:06.100Z,18.71
2022-10-28T09:44:18.831Z,19.12
2022-10-28T09:49:26.394Z,18.98
2022-10-28T09:54:34.947Z,19.45
2022-10-28T09:59:39.921Z,20.07
2022-10-28T10:04:43.841Z,20.43
2022-10-28T10:09:46.807Z,20.34
2022-10-28T10:14:53.728Z,20.65
2022-10-28T10:20:04.556Z,20.89
2022-10-28T10:25:25.257Z,21.04
2022-10-28T10:30:32.491Z,21.31
2022-10-28T10:35:37.921Z,21.93
2022-10-28T10:40:49.661Z,22.08
2022-10-28T10:46:03.749Z,22.14
2022-10-28T10:51:27.190Z,22.53
2022-10-28T10:56:31.866Z,22.89
2022-10-28T11:01:40.826Z,23.18
2022-10-28T11:06:49.481Z,23.50
2022-10-28T11:11:55.885Z,23.29
2022-10-28T11:17:02.171Z,23.14
2022-10-28T11:22:28.208Z,23.33
2022-10-28T11:27:45.550Z,23.58
2022-10-28T11:33:28.303Z,23.53
2022-10-28T11:39:19.773Z,23.88
2022-10-28T11:50:05.353Z,24.68
2022-10-28T11:55:19.410Z,25.10
2022-10-28T12:00:35.254Z,25.58
2022-10-28T12:05:46.441Z,25.63
2022-10-28T12:11:03.827Z,24.49
2022-10-28T12:16:14.979Z,25.99
2022-10-28T12:21:26.459Z,25.59
2022-10-28T12:26:39.038Z,25.99
2022-10-28T12:31:47.231Z,24.93
2022-10-28T12:36:55.395Z,24.46
2022-10-28T12:42:03.752Z,24.17
2022-10-28T12:47:17.338Z,24.24
2022-10-28T12:52:31.814Z,23.69
2022-10-28T12:57:36.506Z,23.75
2022-10-28T13:02:50.446Z,23.63
2022-10-28T13:08:14.532Z,23.61
2022-10-28T13:13:38.352Z,23.69
2022-10-28T13:19:19.945Z,24.25
2022-10-28T13:24:29.971Z,24.09
2022-10-28T13:29:35.905Z,24.09
2022-10-28T13:34:41.000Z,23.73
2022-10-28T13:39:46.657Z,23.66
2022-10-28T13:44:50.822Z,23.62
2022-10-28T13:50:21.441Z,23.95
2022-10-28T13:55:28.183Z,23.92
2022-10-28T14:00:39.010Z,23.58
2022-10-28T14:05:54.346Z,23.34
2022-10-28T14:11:04.382Z,23.25
2022-10-28T14:16:23.901Z,23.24
2022-10-28T14:21:39.477Z,23.06
2022-10-28T14:27:26.861Z,23.10
2022-10-28T14:32:43.893Z,22.96
2022-10-28T14:38:31.738Z,22.75
2022-10-28T14:43:55.088Z,22.66
2022-10-28T14:49:01.581Z,22.51
2022-10-28T14:54:10.286Z,22.47
2022-10-28T14:59:26.336Z,22.41
2022-10-28T15:04:32.300Z,22.18
2022-10-28T15:09:36.134Z,22.11
2022-10-28T15:14:41.445Z,21.93
2022-10-28T15:19:46.973Z,21.70
2022-10-28T15:25:00.842Z,21.57
2022-10-28T15:30:04.980Z,21.47
2022-10-28T15:35:43.447Z,21.26
2022-10-28T15:40:46.293Z,21.06
2022-10-28T15:45:49.101Z,20.89
2022-10-28T15:51:15.237Z,20.65
2022-10-28T15:56:25.549Z,20.40
2022-10-28T16:01:31.477Z,20.26
2022-10-28T16:06:37.971Z,20.11
2022-10-28T16:11:44.995Z,19.99
2022-10-28T16:16:48.476Z,19.84
2022-10-28T16:21:52.728Z,19.70
2022-10-28T16:26:55.450Z,19.50
2022-10-28T16:31:58.284Z,19.33
2022-10-28T16:37:02.442Z,19.33
2022-10-28T16:42:05.246Z,19.26
2022-10-28T16:47:12.092Z,19.13
2022-10-28T16:52:19.999Z,18.92
2022-10-28T17:02:29.273Z,18.37
2022-10-28T17:07:33.644Z,18.20
2022-10-28T17:12:36.389Z,17.97
2022-10-28T17:17:39.225Z,17.74
2022-10-28T17:22:43.368Z,17.62
2022-10-28T17:27:48.484Z,17.40
2022-10-28T17:32:53.095Z,17.27
2022-10-28T17:37:57.949Z,17.10
2022-10-28T17:43:00.953Z,16.99
2022-10-28T17:48:04.865Z,16.80
2022-10-28T17:53:08.929Z,16.71
2022-10-28T17:58:11.912Z,16.57
2022-10-28T18:03:14.677Z,16.46
2022-10-28T18:08:20.658Z,16.33
2022-10-28T18:13:27.561Z,16.19
2022-10-28T18:18:30.308Z,16.09
2022-10-28T18:23:34.470Z,16.00
2022-10-28T18:28:38.706Z,15.90
2022-10-28T18:33:42.099Z,15.80
2022-10-28T18:38:46.335Z,15.70
2022-10-28T18:43:49.166Z,15.60
2022-10-28T18:48:53.218Z,15.55
2022-10-28T18:53:57.468Z,15.60
2022-10-28T18:59:03.596Z,15.57
2022-10-28T19:04:06.790Z,15.57
2022-10-28T19:09:10.885Z,15.56
2022-10-28T19:14:13.695Z,15.57
2022-10-28T19:19:16.381Z,15.51
2022-10-28T19:24:21.014Z,15.53
2022-10-28T19:29:23.849Z,15.42
2022-10-28T19:34:27.204Z,15.35
2022-10-28T19:39:31.303Z,15.35
2022-10-28T19:44:34.228Z,15.26
2022-10-28T19:49:40.641Z,15.15
2022-10-28T19:54:47.654Z,15.12
2022-10-28T19:59:50.455Z,15.07
2022-10-28T20:04:57.086Z,15.00
2022-10-28T20:10:01.295Z,14.96
2022-10-28T20:15:04.550Z,15.00
2022-10-28T20:20:08.513Z,15.00
2022-10-28T20:25:12.660Z,15.06
2022-10-28T20:30:15.469Z,15.10
2022-10-28T20:35:18.952Z,15.10
2022-10-28T20:40:23.075Z,15.05
2022-10-28T20:50:54.791Z,14.95
2022-10-28T20:55:59.646Z,14.85
2022-10-28T21:01:03.995Z,14.76
2022-10-28T21:06:07.462Z,14.65
2022-10-28T21:11:13.625Z,14.63
2022-10-28T21:16:16.745Z,14.52
2022-10-28T21:21:20.689Z,14.50
2022-10-28T21:26:26.854Z,14.58
2022-10-28T21:31:29.961Z,14.66
2022-10-28T21:36:32.765Z,14.65
2022-10-28T21:41:36.936Z,14.71
2022-10-28T21:46:39.696Z,14.71
2022-10-28T21:51:42.436Z,14.70
2022-10-28T21:56:46.537Z,14.74
2022-10-28T22:01:49.358Z,14.76
2022-10-28T22:06:52.544Z,14.81
2022-10-28T22:11:56.722Z,14.80
2022-10-28T22:16:59.448Z,14.94
2022-10-28T22:22:02.545Z,14.89
2022-10-28T22:27:06.690Z,14.80
2022-10-28T22:32:09.479Z,14.57
2022-10-28T22:37:12.255Z,14.43
2022-10-28T22:42:16.338Z,14.36
2022-10-28T22:47:19.181Z,14.29
2022-10-28T22:52:21.873Z,14.18
2022-10-28T22:57:26.256Z,14.11
2022-10-28T23:02:29.133Z,14.02
2022-10-28T23:07:32.216Z,13.95
2022-10-28T23:12:36.409Z,13.84
2022-10-28T23:17:39.458Z,13.71
2022-10-28T23:22:42.158Z,13.68
2022-10-28T23:27:46.283Z,13.53
2022-10-28T23:32:49.046Z,13.51
2022-10-28T23:37:51.811Z,13.46
2022-10-28T23:42:56.296Z,13.38
2022-10-28T23:47:59.305Z,13.26
2022-10-28T23:53:02.014Z,13.20
2022-10-28T23:58:06.173Z,13.13
